FMCH

Prince Said Ibrahim International Airport

Moroni, Comoros
METAR FMCH 211500Z 32010KT 9999 FEW020CB SCT027 OVC060 28/24 Q1009 NOSIG
Observed Flight Rules
Jan-21 @ 15:00 UTC (an hour ago) Visual Flight Rules
Wind Visibility Clouds
320° at 10 knots 10,000+ meters
  • Few at 2,000' AGL
  • Scattered at 2,700' AGL
  • Overcast at 6,000' AGL
Temperatures Readings
Current 28°C / 82°F
Dewpoint 24°C / 75°F
Humidity 79%
Altimeter 29.79" Hg
Pressure 1008.92 hPa
Elevation 29
METAR FMCH 211500Z 32010KT 9999 FEW020CB SCT027 OVC060 28/24 Q1009 NOSIG
Observed Flight Rules
Jan-21 @ 15:00 UTC
(an hour ago)
VFR
Wind Visibility
320° at 10 knots 10,000+ meters
Clouds
  • Few at 2,000' AGL
  • Scattered at 2,700' AGL
  • Overcast at 6,000' AGL
Temperature Dewpoint
28°C / 82°F 24°C / 75°F
Humidity Altimeter Pressure
79% 29.79" Hg 1008.92 hPa